Time;durP1;ratioP1;P1;durP2;ratioP2;P2;SDS_P1;SDS_P2;PMS_P1;PMS_P2;Temp;Humidity;BMP_temperature;BMP_pressure;BME280_temperature;BME280_humidity;BME280_pressure;Samples;Min_cycle;Max_cycle;Signal;HPM_P1;HPM_P2
2022/08/28 00:01:14;;;;;;;16.77;10.75;;;20.40;1.00;;;21.09;61.34;99059.44;4984247;28;133931;-75
2022/08/28 00:03:43;;;;;;;15.15;10.38;;;20.40;1.00;;;20.91;62.06;99055.88;4981403;28;130689;-76
2022/08/28 00:06:12;;;;;;;14.90;11.02;;;20.30;1.00;;;20.85;62.57;99051.91;4980103;28;119233;-77
2022/08/28 00:08:40;;;;;;;17.02;10.18;;;20.20;1.00;;;20.80;62.85;99048.38;4966221;28;119762;-76
2022/08/28 00:11:09;;;;;;;17.33;11.40;;;20.20;1.00;;;20.73;63.51;99048.38;4963267;28;128943;-75
2022/08/28 00:13:39;;;;;;;19.55;11.70;;;20.10;1.00;;;20.67;63.93;99051.91;4961126;28;129509;-75
2022/08/28 00:16:08;;;;;;;15.65;11.45;;;20.00;1.00;;;20.66;64.00;99042.81;4961536;28;121380;-75
2022/08/28 00:18:36;;;;;;;15.65;10.90;;;20.00;1.00;;;20.68;63.54;99045.19;4961762;28;121563;-76
2022/08/28 00:21:06;;;;;;;17.88;11.25;;;20.00;1.00;;;20.68;63.27;99040.47;4962967;28;129530;-76
2022/08/28 00:23:34;;;;;;;16.88;11.52;;;20.10;1.00;;;20.70;62.95;99038.13;4963967;28;131802;-76
2022/08/28 00:26:03;;;;;;;17.00;10.68;;;20.10;1.00;;;20.74;62.48;99027.91;4961527;28;119620;-78
2022/08/28 00:28:31;;;;;;;17.88;11.20;;;20.10;1.00;;;20.70;61.95;99023.56;4963344;28;118809;-75
2022/08/28 00:31:01;;;;;;;18.90;10.25;;;20.20;1.00;;;20.74;62.20;99027.91;4959821;28;129936;-76
2022/08/28 00:33:34;;;;;;;17.25;10.88;;;20.20;1.00;;;20.70;62.17;99027.09;4961321;28;129474;-77
2022/08/28 00:36:04;;;;;;;15.13;10.60;;;20.20;1.00;;;20.72;61.78;99015.66;4961579;28;120106;-77
2022/08/28 00:38:32;;;;;;;15.27;11.18;;;20.20;1.00;;;20.81;61.46;99021.59;4961482;28;119610;-78
2022/08/28 00:41:03;;;;;;;17.08;10.75;;;20.10;1.00;;;20.90;61.62;99012.94;4961613;28;129341;-78
2022/08/28 00:43:40;;;;;;;15.23;9.85;;;20.10;1.00;;;20.94;61.04;99008.19;4960877;28;129521;-77
2022/08/28 00:46:15;;;;;;;16.67;11.02;;;20.10;1.00;;;20.90;60.66;99012.94;4961372;28;119409;-77
2022/08/28 00:48:44;;;;;;;15.05;10.80;;;20.00;1.00;;;20.84;61.39;99020.81;4963135;28;118298;-77
2022/08/28 00:54:01;;;;;;;18.48;10.68;;;20.10;1.00;;;20.74;61.19;99005.03;4960708;28;129614;-76
2022/08/28 00:56:32;;;;;;;14.77;10.68;;;20.10;1.00;;;20.72;61.05;99013.69;4962929;28;118226;-78
2022/08/28 00:59:10;;;;;;;14.52;10.23;;;20.00;1.00;;;20.71;60.83;99014.09;4966158;28;118409;-77
2022/08/28 01:01:40;;;;;;;14.20;9.85;;;20.00;1.00;;;20.74;60.65;99011.34;5000542;28;130198;-78
2022/08/28 01:04:09;;;;;;;15.10;10.00;;;20.00;1.00;;;20.77;61.34;99010.56;5000437;28;129491;-78
2022/08/28 01:06:38;;;;;;;14.75;10.23;;;20.00;1.00;;;20.71;61.66;99017.66;4999453;28;122318;-77
2022/08/28 01:09:06;;;;;;;13.52;9.77;;;19.90;1.00;;;20.67;62.13;99008.56;5000491;28;122350;-77
2022/08/28 01:11:35;;;;;;;17.27;10.13;;;19.80;1.00;;;20.58;62.24;98997.88;4985365;28;130010;-77
2022/08/28 01:14:07;;;;;;;15.82;10.45;;;19.70;1.00;;;20.47;62.97;99014.44;4999962;28;129487;-76
2022/08/28 01:16:37;;;;;;;13.98;10.18;;;19.70;1.00;;;20.40;63.41;99010.88;5000500;28;119984;-77
2022/08/28 01:19:20;;;;;;;15.15;10.02;;;19.60;1.00;;;20.37;63.32;99003.38;4985677;28;118629;-77
2022/08/28 01:21:57;;;;;;;14.25;10.13;;;19.50;1.00;;;20.27;63.95;99002.97;5001975;28;129200;-77
2022/08/28 01:24:28;;;;;;;15.38;9.90;;;19.50;1.00;;;20.22;64.30;99005.28;5000304;28;129382;-77
2022/08/28 01:26:56;;;;;;;14.48;10.27;;;19.40;1.00;;;20.19;64.47;99008.81;4999820;28;119311;-77
2022/08/28 01:29:27;;;;;;;15.80;10.85;;;19.40;1.00;;;20.21;64.58;99006.47;5000119;28;120564;-77
2022/08/28 01:31:56;;;;;;;17.33;10.05;;;19.40;1.00;;;20.15;64.88;98999.75;5000413;28;129761;-78
2022/08/28 01:34:25;;;;;;;14.85;10.02;;;19.30;1.00;;;20.09;65.37;99002.88;4999889;28;129477;-77
2022/08/28 01:36:54;;;;;;;15.52;10.27;;;19.30;1.00;;;20.07;65.58;98991.47;5002043;28;119383;-78
2022/08/28 01:39:27;;;;;;;15.00;9.13;;;19.30;1.00;;;20.04;65.71;98991.44;5000144;28;119752;-77
2022/08/28 01:41:58;;;;;;;17.10;10.23;;;19.20;1.00;;;20.00;65.78;98991.44;4984946;28;128617;-78
2022/08/28 01:44:28;;;;;;;16.65;10.27;;;19.20;1.00;;;20.00;65.73;98990.66;4999729;28;129654;-78
2022/08/28 01:46:59;;;;;;;15.75;9.40;;;19.20;1.00;;;20.03;65.41;99000.91;5016032;28;119708;-77
2022/08/28 01:49:28;;;;;;;12.75;9.25;;;19.20;1.00;;;20.03;65.42;98996.16;5015898;28;119380;-77
2022/08/28 01:51:58;;;;;;;14.57;9.88;;;19.20;1.00;;;20.01;65.45;98995.00;5001370;28;128847;-77
2022/08/28 01:54:28;;;;;;;15.18;9.77;;;19.10;1.00;;;19.92;65.87;98987.09;5001422;28;128865;-78
2022/08/28 01:56:57;;;;;;;15.00;9.52;;;19.10;1.00;;;19.85;65.80;98981.53;4998782;28;123373;-77
2022/08/28 01:59:25;;;;;;;15.50;10.00;;;19.10;1.00;;;19.77;66.19;98977.19;5001391;28;120953;-77
2022/08/28 02:01:54;;;;;;;13.25;8.95;;;19.10;1.00;;;19.77;66.24;98985.44;4999308;28;130103;-77
2022/08/28 02:04:23;;;;;;;14.13;9.43;;;19.00;1.00;;;19.77;66.21;98988.19;4999825;28;129410;-77
2022/08/28 02:06:52;;;;;;;13.73;9.05;;;18.90;1.00;;;19.66;66.11;98972.38;4999486;28;119627;-76
2022/08/28 02:09:20;;;;;;;15.32;9.93;;;19.00;1.00;;;19.57;66.57;98981.00;5001725;28;118650;-77
2022/08/28 02:11:50;;;;;;;15.93;9.63;;;19.00;1.00;;;19.51;67.01;98971.53;4999392;28;130567;-76
2022/08/28 02:14:21;;;;;;;15.50;10.30;;;18.90;1.00;;;19.51;67.31;98976.22;4998209;28;129981;-76
2022/08/28 02:16:50;;;;;;;14.30;9.32;;;18.90;1.00;;;19.54;67.60;98975.44;5018239;28;119279;-76
2022/08/28 02:19:19;;;;;;;14.25;9.13;;;18.80;1.00;;;19.52;66.75;98975.06;4999447;28;119633;-77
2022/08/28 02:21:48;;;;;;;15.82;9.50;;;18.80;1.00;;;19.45;67.23;98977.78;5000286;28;129132;-77
2022/08/28 02:24:17;;;;;;;12.98;9.07;;;18.80;1.00;;;19.46;67.16;98974.63;5014559;28;129478;-76
2022/08/28 02:26:46;;;;;;;17.80;9.20;;;18.80;1.00;;;19.46;67.03;98977.41;4999524;28;120432;-77
2022/08/28 02:29:17;;;;;;;15.98;9.68;;;18.80;1.00;;;19.46;67.09;98980.16;5001356;28;119069;-77
2022/08/28 02:31:46;;;;;;;16.70;9.27;;;18.80;1.00;;;19.38;67.43;98978.50;4984437;28;128650;-77
2022/08/28 02:34:14;;;;;;;13.05;9.63;;;18.70;1.00;;;19.33;67.62;98968.66;5001046;28;129319;-76
2022/08/28 02:36:43;;;;;;;16.88;9.20;;;18.70;1.00;;;19.31;67.65;98965.50;4999463;28;119582;-77
2022/08/28 02:39:12;;;;;;;12.70;8.88;;;18.60;1.00;;;19.34;67.83;98969.47;5001616;28;119787;-77
2022/08/28 02:41:42;;;;;;;14.40;9.30;;;18.60;1.00;;;19.29;68.59;98970.59;5005923;28;129461;-78
2022/08/28 02:44:10;;;;;;;15.18;9.00;;;18.40;1.00;;;19.21;68.68;98960.72;5002543;28;130174;-77
2022/08/28 02:46:40;;;;;;;12.50;9.15;;;18.40;1.00;;;19.21;69.17;98963.44;5003372;28;120845;-77
2022/08/28 02:49:09;;;;;;;13.20;8.70;;;18.30;1.00;;;19.08;69.81;98954.72;5002971;28;122380;-77
2022/08/28 02:51:37;;;;;;;15.85;9.68;;;18.20;1.00;;;18.91;70.73;98958.91;5002771;28;131251;-77
2022/08/28 02:54:06;;;;;;;14.85;9.35;;;18.20;1.00;;;18.79;71.45;98959.19;5002444;28;129449;-77
2022/08/28 02:56:35;;;;;;;14.38;10.10;;;18.20;1.00;;;18.67;72.11;98963.81;5003144;28;119372;-77
2022/08/28 02:59:04;;;;;;;14.00;9.30;;;18.10;1.00;;;18.63;72.61;98962.97;5002309;28;119503;-76
2022/08/28 03:01:32;;;;;;;16.13;10.10;;;18.10;1.00;;;18.66;72.38;98964.19;4989887;28;129743;-78
2022/08/28 03:04:04;;;;;;;14.27;9.82;;;18.00;1.00;;;18.73;72.59;98967.00;5018080;28;128967;-78
2022/08/28 03:06:33;;;;;;;15.35;10.20;;;17.90;1.00;;;18.71;72.69;98963.03;5006670;28;118656;-77
2022/08/28 03:09:01;;;;;;;15.25;9.70;;;17.80;1.00;;;18.65;73.05;98960.66;5002311;28;119809;-77
2022/08/28 03:11:30;;;;;;;14.07;9.35;;;17.80;1.00;;;18.67;72.77;98963.03;4999575;28;130469;-78
2022/08/28 03:14:00;;;;;;;13.05;9.63;;;17.90;1.00;;;18.71;72.66;98969.31;5021910;28;129287;-78
2022/08/28 03:16:29;;;;;;;13.73;9.07;;;17.90;1.00;;;18.78;72.40;98960.38;5001207;28;119497;-78
2022/08/28 03:18:58;;;;;;;15.90;9.30;;;17.80;1.00;;;18.81;71.92;98963.13;5020982;28;118705;-78
2022/08/28 03:21:28;;;;;;;11.70;8.50;;;17.80;1.00;;;18.77;72.36;98956.81;5017151;28;130009;-77
2022/08/28 03:23:57;;;;;;;15.95;10.73;;;17.80;1.00;;;18.62;73.36;98958.66;5002020;28;129472;-77
2022/08/28 03:26:25;;;;;;;16.23;10.02;;;17.70;1.00;;;18.57;73.51;98964.47;5002248;28;120100;-77
2022/08/28 03:28:56;;;;;;;15.77;10.00;;;17.70;1.00;;;18.56;73.87;98968.41;5002326;28;120160;-77
2022/08/28 03:31:28;;;;;;;17.90;10.35;;;17.70;1.00;;;18.56;74.00;98968.41;5001897;28;130307;-77
2022/08/28 03:33:57;;;;;;;14.18;9.32;;;17.70;1.00;;;18.58;73.99;98968.03;5001944;28;130483;-77
2022/08/28 03:36:28;;;;;;;16.90;10.20;;;17.60;1.00;;;18.63;73.83;98960.22;5002703;28;121894;-77
2022/08/28 03:39:00;;;;;;;15.60;10.13;;;17.70;1.00;;;18.60;74.22;98958.22;5001607;28;121913;-77
2022/08/28 03:41:31;;;;;;;11.10;8.82;;;17.60;1.00;;;18.61;74.40;98957.06;5001462;28;130395;-77
2022/08/28 03:44:01;;;;;;;14.38;9.13;;;17.70;1.00;;;18.65;74.27;98949.66;5001597;28;129760;-77
2022/08/28 03:46:32;;;;;;;15.55;10.15;;;17.70;1.00;;;18.72;74.08;98950.91;5003695;28;118502;-78
2022/08/28 03:49:02;;;;;;;15.25;9.98;;;17.80;1.00;;;18.81;73.96;98956.88;5002017;28;119562;-78
2022/08/28 03:51:34;;;;;;;14.15;9.73;;;17.80;1.00;;;18.89;73.36;98950.28;5019118;27;129498;-77
2022/08/28 03:54:04;;;;;;;16.25;10.05;;;17.90;1.00;;;18.83;73.70;98957.25;5001714;28;129187;-77
2022/08/28 03:56:33;;;;;;;20.05;11.45;;;17.90;1.00;;;18.85;73.89;98957.69;5001726;28;119463;-77
2022/08/28 03:59:04;;;;;;;16.38;10.88;;;17.90;1.00;;;18.85;73.90;98952.19;5001767;28;119876;-77
2022/08/28 04:01:33;;;;;;;17.50;11.10;;;17.90;1.00;;;18.91;73.88;98956.16;4985296;28;130033;-76
2022/08/28 04:04:02;;;;;;;15.73;10.00;;;18.00;1.00;;;18.99;73.45;98955.06;5001083;28;129760;-76
2022/08/28 04:06:32;;;;;;;17.38;10.10;;;18.00;1.00;;;19.09;73.05;98952.75;5001435;28;121171;-78
2022/08/28 04:09:01;;;;;;;13.07;9.63;;;18.00;1.00;;;19.19;73.08;98952.06;5000362;28;119394;-77
2022/08/28 04:11:29;;;;;;;16.48;9.80;;;18.20;1.00;;;19.26;72.68;98954.88;5001185;28;129799;-76
2022/08/28 04:13:58;;;;;;;14.90;9.73;;;18.20;1.00;;;19.32;72.47;98947.03;5001162;28;129694;-76
2022/08/28 04:16:27;;;;;;;18.10;9.63;;;18.30;1.00;;;19.40;72.33;98954.94;5003321;28;119308;-77
2022/08/28 04:18:55;;;;;;;16.63;10.02;;;18.40;1.00;;;19.52;72.70;98945.56;5001893;28;119378;-78
2022/08/28 04:21:26;;;;;;;12.52;9.52;;;18.50;1.00;;;19.67;73.03;98957.44;5001709;28;129935;-79
2022/08/28 04:23:57;;;;;;;18.10;9.98;;;18.50;1.00;;;19.78;71.91;98951.22;5016346;28;129584;-77
2022/08/28 04:26:28;;;;;;;13.60;10.25;;;18.60;1.00;;;19.80;71.66;98948.88;5000252;28;122421;-77
2022/08/28 04:28:56;;;;;;;16.52;11.15;;;18.60;1.00;;;19.85;71.41;98951.25;5000285;28;121851;-78
2022/08/28 04:31:26;;;;;;;12.68;9.50;;;18.70;1.00;;;19.98;71.11;98949.72;5019457;28;129664;-76
2022/08/28 04:33:55;;;;;;;14.05;10.45;;;18.80;1.00;;;19.99;70.49;98942.25;5000497;28;129952;-77
2022/08/28 04:36:23;;;;;;;14.13;10.00;;;18.90;1.00;;;20.07;70.45;98952.91;5000978;28;119540;-76
2022/08/28 04:38:52;;;;;;;15.88;9.57;;;18.90;1.00;;;20.26;69.43;98949.03;5000957;28;119123;-76
2022/08/28 04:41:22;;;;;;;13.75;10.30;;;19.10;1.00;;;20.39;68.98;98951.41;5001576;28;130588;-71
2022/08/28 04:43:51;;;;;;;14.05;9.88;;;19.10;1.00;;;20.34;69.16;98952.59;5001172;28;129302;-72
2022/08/28 04:46:20;;;;;;;15.77;9.60;;;19.10;1.00;;;20.35;69.52;98948.66;5000831;28;119356;-72
2022/08/28 04:48:49;;;;;;;15.05;9.80;;;19.10;1.00;;;20.32;69.21;98946.69;5000679;28;119739;-72
2022/08/28 04:51:19;;;;;;;15.00;10.45;;;19.10;1.00;;;20.16;70.02;98941.50;4999233;28;130762;-71
2022/08/28 04:53:48;;;;;;;17.00;9.88;;;19.00;1.00;;;19.99;70.92;98940.31;5002263;28;129792;-74
2022/08/28 04:56:17;;;;;;;13.48;9.20;;;18.90;1.00;;;20.06;71.07;98950.56;5017240;28;119508;-73
2022/08/28 04:58:46;;;;;;;13.75;9.38;;;19.00;1.00;;;20.16;70.62;98943.47;5020612;28;119444;-75
2022/08/28 05:01:19;;;;;;;15.27;10.50;;;19.00;1.00;;;20.37;70.43;98943.53;5020415;28;130487;-77
2022/08/28 05:03:52;;;;;;;16.08;9.23;;;19.10;1.00;;;20.39;69.65;98940.38;5019597;28;129660;-72
2022/08/28 05:06:21;;;;;;;14.40;9.80;;;19.10;1.00;;;20.40;69.85;98937.25;5021858;28;119220;-73
2022/08/28 05:08:50;;;;;;;16.00;10.20;;;19.10;1.00;;;20.46;69.82;98941.19;5022562;28;118578;-72
2022/08/28 05:11:21;;;;;;;15.55;10.48;;;19.20;1.00;;;20.55;69.51;98931.75;5019322;28;131152;-72
2022/08/28 05:13:52;;;;;;;14.65;10.52;;;19.30;1.00;;;20.58;69.36;98930.97;5019177;28;129426;-72
2022/08/28 05:16:22;;;;;;;16.10;10.93;;;19.40;1.00;;;20.69;69.49;98931.00;5018777;28;121695;-71
2022/08/28 05:18:51;;;;;;;14.80;10.23;;;19.40;1.00;;;20.68;69.19;98924.69;5019933;28;121709;-71
2022/08/28 05:21:22;;;;;;;15.50;10.68;;;19.50;1.00;;;20.59;69.52;98927.03;5020047;28;130033;-72
2022/08/28 05:23:56;;;;;;;14.40;10.48;;;19.40;1.00;;;20.52;70.35;98927.00;5019394;28;129764;-72
2022/08/28 05:26:25;;;;;;;15.70;9.88;;;19.40;1.00;;;20.58;70.08;98917.16;5018924;28;119993;-71
2022/08/28 05:28:58;;;;;;;14.25;9.40;;;19.50;1.00;;;20.75;69.86;98912.88;5019734;28;119492;-72
2022/08/28 05:31:28;;;;;;;14.50;9.65;;;19.70;1.00;;;20.96;68.94;98918.38;5021651;28;128935;-71
2022/08/28 05:33:58;;;;;;;14.80;10.27;;;19.80;1.00;;;20.97;69.17;98911.69;5019424;28;129531;-71
2022/08/28 05:36:28;;;;;;;15.07;10.35;;;19.80;1.00;;;21.01;69.00;98914.44;5020398;28;120791;-72
2022/08/28 05:38:58;;;;;;;17.45;10.48;;;19.80;1.00;;;21.08;68.73;98908.88;5021440;28;119171;-71
2022/08/28 05:41:30;;;;;;;14.10;10.02;;;19.90;1.00;;;21.04;68.86;98912.88;5018503;28;130100;-72
2022/08/28 05:44:02;;;;;;;15.25;9.43;;;19.80;1.00;;;21.15;68.35;98917.16;5019040;28;129866;-73
2022/08/28 05:46:31;;;;;;;13.63;9.65;;;19.90;1.00;;;21.11;68.82;98913.63;5020192;28;119836;-72
2022/08/28 05:49:00;;;;;;;14.85;10.00;;;19.90;1.00;;;21.24;68.80;98927.81;5019621;28;119486;-73
2022/08/28 05:51:30;;;;;;;15.23;10.15;;;20.00;1.00;;;21.30;68.09;98930.91;5019439;28;130084;-71
2022/08/28 05:54:00;;;;;;;16.02;9.98;;;20.00;1.00;;;21.34;67.54;98934.47;5018774;28;129612;-73
2022/08/28 05:56:31;;;;;;;15.32;9.50;;;20.00;1.00;;;21.22;67.95;98923.84;5019704;28;119502;-73
2022/08/28 05:59:04;;;;;;;13.43;9.85;;;20.00;1.00;;;21.23;67.95;98931.72;5019489;28;119478;-71
2022/08/28 06:01:36;;;;;;;18.88;9.85;;;20.00;1.00;;;20.96;69.35;98923.91;5019511;28;130621;-72
2022/08/28 06:04:10;;;;;;;16.02;10.38;;;19.80;1.00;;;20.96;69.87;98923.13;5018580;28;130003;-71
2022/08/28 06:06:40;;;;;;;17.98;10.70;;;19.90;1.00;;;20.99;69.87;98927.84;5020537;28;120770;-73
2022/08/28 06:09:11;;;;;;;20.35;10.23;;;19.90;1.00;;;21.04;70.03;98930.19;5019316;28;122032;-73
2022/08/28 06:11:40;;;;;;;19.17;11.13;;;19.90;1.00;;;21.36;69.01;98930.13;5019346;28;130358;-71
2022/08/28 06:14:12;;;;;;;14.07;10.73;;;20.20;1.00;;;21.50;68.54;98932.09;5018254;28;129405;-73
2022/08/28 06:16:44;;;;;;;15.65;10.73;;;20.30;1.00;;;21.63;68.48;98937.16;5019486;28;119769;-74
2022/08/28 06:19:14;;;;;;;18.35;10.35;;;20.40;1.00;;;21.65;68.16;98929.28;5018096;28;119968;-74
2022/08/28 06:21:42;;;;;;;15.18;10.77;;;20.30;1.00;;;21.63;68.54;98928.88;5018930;28;130370;-76
2022/08/28 06:24:12;;;;;;;16.63;10.98;;;20.30;1.00;;;21.59;68.73;98925.38;5021135;28;128506;-72
2022/08/28 06:26:41;;;;;;;16.08;11.45;;;20.30;1.00;;;21.51;69.39;98919.84;5019393;28;119707;-71
2022/08/28 06:29:14;;;;;;;15.82;10.85;;;20.30;1.00;;;21.54;69.53;98919.06;5019809;28;120383;-71
2022/08/28 06:31:43;;;;;;;19.25;11.98;;;20.40;1.00;;;21.34;70.31;98926.19;5017380;28;129841;-74
2022/08/28 06:34:12;;;;;;;15.85;11.18;;;20.30;1.00;;;21.31;70.94;98910.44;5018650;28;130029;-73
2022/08/28 06:36:43;;;;;;;15.65;10.48;;;20.30;1.00;;;21.64;69.85;98916.66;5019472;28;119680;-70
2022/08/28 06:39:14;;;;;;;15.25;11.15;;;20.60;1.00;;;22.13;68.49;98912.09;5019062;28;119552;-71
2022/08/28 06:41:43;;;;;;;18.20;10.98;;;21.00;1.00;;;22.23;67.17;98908.44;5017108;28;130306;-74
2022/08/28 06:44:18;;;;;;;15.55;11.13;;;21.00;1.00;;;22.53;65.81;98909.88;5020290;28;129168;-70
2022/08/28 06:46:49;;;;;;;16.58;11.02;;;21.20;1.00;;;22.80;65.64;98918.31;4999075;28;119551;-70
2022/08/28 06:49:17;;;;;;;14.80;10.63;;;21.40;1.00;;;22.88;64.31;98919.06;4999171;28;119531;-70
2022/08/28 06:51:46;;;;;;;17.42;11.40;;;21.40;1.00;;;23.39;63.22;98915.81;5013527;28;130044;-73
2022/08/28 06:54:16;;;;;;;14.63;11.57;;;21.90;1.00;;;23.88;60.99;98905.34;4998911;28;129611;-72
2022/08/28 06:56:45;;;;;;;21.55;11.02;;;21.70;1.00;;;24.21;60.13;98900.94;4997507;28;121727;-70
2022/08/28 06:59:15;;;;;;;15.68;10.95;;;22.20;1.00;;;24.36;59.72;98903.50;5017145;28;121439;-72
2022/08/28 07:01:44;;;;;;;15.55;10.32;;;22.50;1.00;;;24.34;59.34;98898.38;4997853;28;130566;-74
2022/08/28 07:04:13;;;;;;;15.02;10.90;;;22.50;1.00;;;24.30;59.88;98896.84;4998167;28;129922;-71
2022/08/28 07:06:45;;;;;;;15.02;10.20;;;22.50;1.00;;;24.21;60.54;98905.69;5014320;28;119658;-71
2022/08/28 07:09:14;;;;;;;15.77;10.55;;;22.50;1.00;;;23.79;61.51;98897.50;5008782;28;120413;-72
2022/08/28 07:11:46;;;;;;;16.15;10.48;;;22.10;1.00;;;23.98;60.76;98896.13;5018348;28;129837;-75
2022/08/28 07:14:16;;;;;;;14.27;10.43;;;22.40;1.00;;;24.11;60.54;98898.31;5018786;28;130289;-71
2022/08/28 07:16:45;;;;;;;16.10;10.10;;;22.50;1.00;;;23.93;61.25;98888.25;5018839;28;119924;-74
2022/08/28 07:19:15;;;;;;;13.55;11.05;;;22.40;1.00;;;23.96;61.19;98884.66;5020290;28;118889;-72
2022/08/28 07:21:46;;;;;;;15.35;10.57;;;22.40;1.00;;;23.89;61.56;98878.44;5016718;28;130503;-72
2022/08/28 07:24:17;;;;;;;18.77;10.88;;;22.40;1.00;;;24.12;61.05;98880.47;5019825;28;128253;-72
2022/08/28 07:26:48;;;;;;;16.33;11.05;;;22.60;1.00;;;24.52;59.69;98883.44;5036520;27;119656;-72
2022/08/28 07:29:18;;;;;;;20.73;10.73;;;22.80;1.00;;;24.71;58.07;98877.22;5021923;28;119981;-69
2022/08/28 07:31:49;;;;;;;17.67;12.27;;;22.90;1.00;;;24.70;58.21;98881.19;5020939;28;130235;-71
2022/08/28 07:34:21;;;;;;;17.60;10.95;;;22.80;1.00;;;24.84;58.92;98869.06;5023073;28;128404;-71
2022/08/28 07:36:51;;;;;;;25.70;11.18;;;23.10;1.00;;;25.33;57.02;98876.88;5020597;28;120170;-74
2022/08/28 07:39:19;;;;;;;16.55;10.68;;;23.40;1.00;;;25.10;57.73;98870.16;5022098;28;120737;-70
2022/08/28 07:41:49;;;;;;;16.52;10.52;;;23.30;1.00;;;25.04;57.45;98866.31;5020602;28;130172;-72
2022/08/28 07:47:06;;;;;;;18.65;11.20;;;23.50;1.00;;;25.44;56.34;98877.44;5019037;28;121644;-73
2022/08/28 07:49:35;;;;;;;18.70;10.93;;;23.40;1.00;;;25.68;55.79;98873.78;5021455;28;121881;-72
2022/08/28 07:52:05;;;;;;;17.35;10.60;;;23.80;1.00;;;25.92;55.09;98871.69;5020507;28;129943;-70
2022/08/28 07:54:34;;;;;;;21.08;11.05;;;24.00;1.00;;;26.14;54.17;98867.22;5020741;28;129906;-72
2022/08/28 07:57:04;;;;;;;21.63;10.63;;;23.90;1.00;;;26.19;53.91;98869.53;5020370;28;120054;-70
2022/08/28 07:59:34;;;;;;;17.35;11.05;;;24.20;1.00;;;26.18;54.28;98870.72;5021847;28;119865;-72
2022/08/28 08:02:03;;;;;;;17.83;10.85;;;24.40;1.00;;;26.37;53.59;98866.28;5022278;28;129646;-69
2022/08/28 08:04:31;;;;;;;15.63;10.88;;;24.50;1.00;;;26.55;53.04;98874.22;5021026;28;129807;-70
2022/08/28 08:07:02;;;;;;;17.55;10.93;;;24.60;1.00;;;26.76;52.92;98863.78;5040276;27;118969;-71
2022/08/28 08:09:31;;;;;;;16.30;10.45;;;24.90;1.00;;;27.16;52.43;98866.31;5020988;28;120384;-70
2022/08/28 08:12:01;;;;;;;18.38;11.98;;;25.30;1.00;;;26.87;52.89;98861.50;5018958;28;130326;-71
2022/08/28 08:14:30;;;;;;;20.00;11.45;;;25.10;1.00;;;26.66;53.63;98856.47;5020672;28;130330;-71
2022/08/28 08:17:02;;;;;;;16.90;11.18;;;24.80;1.00;;;26.98;52.69;98864.00;5020681;28;119766;-71
2022/08/28 08:19:30;;;;;;;14.55;10.88;;;25.20;1.00;;;26.93;52.21;98864.53;5040068;27;119075;-71
2022/08/28 08:22:01;;;;;;;17.48;11.13;;;25.20;1.00;;;27.12;52.80;98854.47;5020186;28;130148;-75
2022/08/28 08:24:30;;;;;;;16.67;11.57;;;25.30;1.00;;;27.52;50.71;98854.19;5020949;28;130154;-71
2022/08/28 08:27:01;;;;;;;19.50;11.43;;;25.30;1.00;;;27.57;50.49;98850.84;5022336;28;118914;-71
2022/08/28 08:29:34;;;;;;;14.90;10.43;;;25.30;1.00;;;27.46;51.22;98844.81;5021469;28;119770;-71
2022/08/28 08:32:07;;;;;;;16.80;11.57;;;25.40;1.00;;;27.30;51.43;98858.75;5021761;28;129799;-71
2022/08/28 08:34:40;;;;;;;18.42;11.32;;;25.40;1.00;;;27.47;51.53;98853.94;5020740;28;129547;-71
2022/08/28 08:37:10;;;;;;;16.00;10.95;;;25.70;1.00;;;27.55;50.95;98853.28;5018759;28;122235;-73
2022/08/28 08:39:40;;;;;;;18.88;11.70;;;25.70;1.00;;;27.60;51.10;98855.53;5020858;28;122018;-71
2022/08/28 08:42:21;;;;;;;16.95;11.35;;;25.80;1.00;;;28.13;50.30;98846.00;5021701;28;129486;-72
2022/08/28 08:44:51;;;;;;;17.95;10.75;;;26.10;1.00;;;28.27;49.39;98839.19;5020489;28;129688;-71
2022/08/28 08:47:30;;;;;;;15.55;10.77;;;26.10;1.00;;;28.26;48.64;98843.19;5019436;28;120011;-71
2022/08/28 08:50:04;;;;;;;16.40;11.02;;;26.10;1.00;;;28.14;49.35;98836.38;5021084;28;119655;-70
2022/08/28 08:52:46;;;;;;;15.85;10.55;;;26.10;1.00;;;28.41;49.49;98833.13;5019700;28;130966;-72
2022/08/28 08:55:27;;;;;;;18.50;11.00;;;26.70;1.00;;;28.33;48.26;98837.38;5022827;28;129182;-71
2022/08/28 08:58:06;;;;;;;18.08;10.75;;;26.50;1.00;;;28.60;47.41;98839.69;5020508;28;119516;-71
2022/08/28 09:00:40;;;;;;;16.27;10.15;;;26.40;1.00;;;28.22;48.88;98842.50;5022550;28;120034;-70
2022/08/28 09:03:20;;;;;;;17.63;10.90;;;26.40;1.00;;;28.40;48.22;98841.94;5018422;28;130001;-71
2022/08/28 09:05:56;;;;;;;15.43;10.57;;;26.50;1.00;;;28.73;47.67;98838.88;5020165;28;129884;-72
2022/08/28 09:08:36;;;;;;;18.38;9.52;;;26.80;1.00;;;28.92;46.47;98837.00;5020470;28;119441;-70
2022/08/28 09:11:22;;;;;;;15.15;10.32;;;27.00;1.00;;;29.18;46.47;98832.84;5019066;28;120089;-72
2022/08/28 09:13:55;;;;;;;;;;;26.90;1.00;;;29.44;46.10;98843.16;5020792;28;130908;-72
2022/08/28 09:16:32;;;;;;;13.98;9.63;;;27.50;1.00;;;29.39;45.07;98836.91;5019177;28;129220;-71
2022/08/28 09:19:02;;;;;;;16.15;9.50;;;27.50;1.00;;;29.98;45.36;98836.31;5020480;28;119543;-71
2022/08/28 09:21:34;;;;;;;13.88;9.15;;;27.90;1.00;;;30.38;43.24;98835.47;5020839;28;119143;-71
2022/08/28 09:24:17;;;;;;;15.13;9.63;;;28.20;1.00;;;30.06;42.57;98831.97;5022144;28;128989;-74
2022/08/28 09:26:54;;;;;;;16.20;9.10;;;27.80;1.00;;;29.39;43.38;98827.78;5020472;28;129385;-73
2022/08/28 09:29:29;;;;;;;14.63;8.23;;;27.40;1.00;;;29.74;42.13;98839.59;5019279;28;122010;-72
2022/08/28 09:31:58;;;;;;;13.77;8.65;;;27.50;1.00;;;30.35;41.35;98836.41;5022159;28;122024;-72
2022/08/28 09:34:33;;;;;;;15.70;8.75;;;27.90;1.00;;;30.94;40.20;98839.13;5019259;28;129861;-73
2022/08/28 09:37:02;;;;;;;15.90;8.50;;;28.40;1.00;;;31.44;39.64;98838.94;5021636;28;128343;-72
2022/08/28 09:39:34;;;;;;;21.55;7.57;;;29.00;1.00;;;31.92;36.55;98829.94;5020375;28;119780;-70
2022/08/28 09:45:12;;;;;;;9.75;6.72;;;29.50;1.00;;;32.28;34.12;98824.66;5019727;28;130006;-72
2022/08/28 09:47:47;;;;;;;10.38;6.18;;;29.80;1.00;;;32.49;30.92;98823.56;5021797;28;129050;-72
2022/08/28 09:50:31;;;;;;;8.25;5.55;;;29.90;1.00;;;32.68;30.65;98824.25;5019434;28;119843;-74
2022/08/28 09:53:16;;;;;;;18.10;6.72;;;30.10;1.00;;;32.83;29.75;98817.88;5020125;28;119388;-70
2022/08/28 09:55:58;;;;;;;12.93;5.70;;;30.10;1.00;;;32.91;29.28;98814.22;5018420;28;131223;-70
2022/08/28 09:58:35;;;;;;;10.50;6.03;;;29.80;1.00;;;32.98;29.91;98813.06;5019729;28;130585;-71
2022/08/28 10:01:23;;;;;;;8.98;5.35;;;29.80;1.00;;;32.55;29.36;98810.44;5022443;28;119489;-69
2022/08/28 10:04:01;;;;;;;8.43;5.47;;;29.70;1.00;;;31.60;29.88;98811.84;5018648;28;119165;-71
2022/08/28 10:06:36;;;;;;;8.27;4.68;;;29.00;1.00;;;32.10;29.88;98820.69;5019400;28;129633;-71
2022/08/28 10:09:15;;;;;;;8.10;4.30;;;29.60;1.00;;;32.55;25.99;98809.63;5021802;28;128495;-71
2022/08/28 10:11:55;;;;;;;7.15;3.33;;;30.10;1.00;;;32.67;25.93;98811.44;5020013;28;119838;-71
2022/08/28 10:14:45;;;;;;;8.50;4.95;;;30.30;1.00;;;31.88;27.98;98813.28;5020229;28;119368;-74
2022/08/28 10:17:25;;;;;;;8.60;5.00;;;29.40;1.00;;;31.21;28.78;98815.16;5019668;28;129736;-71
2022/08/28 10:20:03;;;;;;;8.25;5.07;;;28.80;1.00;;;31.42;28.04;98810.63;5019165;28;130130;-71
2022/08/28 10:22:49;;;;;;;8.35;4.95;;;28.60;1.00;;;31.67;27.89;98811.50;5020301;28;121207;-72
2022/08/28 10:25:26;;;;;;;;;;;29.10;1.00;;;31.94;26.44;98795.81;5020170;28;122155;-71
2022/08/28 10:28:21;;;;;;;11.25;4.50;;;29.60;1.00;;;31.92;26.47;98803.94;5019392;28;130204;-70
2022/08/28 10:31:05;;;;;;;9.02;4.38;;;29.50;1.00;;;31.87;26.72;98802.53;5019333;28;129529;-71
2022/08/28 10:33:50;;;;;;;9.93;4.15;;;29.60;1.00;;;31.71;26.78;98801.69;5004588;28;118968;-72
2022/08/28 10:36:23;;;;;;;8.60;4.10;;;29.60;1.00;;;32.24;26.61;98803.16;5018347;28;119391;-74